createdAt,value
2019-01-27T00:00:16.463Z,133.17
2019-01-27T00:02:57.092Z,135.93
2019-01-27T00:05:37.845Z,128.03
2019-01-27T00:08:19.120Z,132.30
2019-01-27T00:11:00.414Z,128.10
2019-01-27T00:13:41.142Z,127.27
2019-01-27T00:16:22.793Z,126.13
2019-01-27T00:19:03.855Z,126.97
2019-01-27T00:21:44.527Z,123.07
2019-01-27T00:24:25.751Z,126.00
2019-01-27T00:27:07.190Z,127.43
2019-01-27T00:29:48.388Z,126.67
2019-01-27T00:32:29.613Z,130.10
2019-01-27T00:35:10.116Z,130.00
2019-01-27T00:37:50.826Z,124.47
2019-01-27T00:40:31.730Z,126.07
2019-01-27T00:43:13.300Z,119.50
2019-01-27T00:45:54.263Z,124.63
2019-01-27T00:48:35.683Z,115.93
2019-01-27T00:51:16.357Z,126.47
2019-01-27T00:53:56.974Z,121.13
2019-01-27T00:56:36.926Z,117.63
2019-01-27T01:02:25.768Z,111.83
2019-01-27T01:05:06.948Z,122.20
2019-01-27T01:07:48.085Z,110.23
2019-01-27T01:10:29.701Z,117.07
2019-01-27T01:13:10.598Z,115.27
2019-01-27T01:15:51.861Z,114.07
2019-01-27T01:18:31.304Z,111.03
2019-01-27T01:21:19.819Z,109.77
2019-01-27T01:24:01.130Z,108.37
2019-01-27T01:26:42.522Z,109.50
2019-01-27T01:29:24.051Z,114.23
2019-01-27T01:32:05.141Z,109.07
2019-01-27T01:34:46.195Z,111.07
2019-01-27T01:37:27.507Z,103.10
2019-01-27T01:40:08.746Z,109.93
2019-01-27T01:42:49.523Z,114.67
2019-01-27T01:45:31.060Z,126.67
2019-01-27T01:48:11.729Z,117.07
2019-01-27T01:50:52.665Z,120.10
2019-01-27T01:53:34.034Z,120.40
2019-01-27T01:56:15.461Z,123.40
2019-01-27T01:58:56.077Z,119.90
2019-01-27T02:01:36.938Z,123.60
2019-01-27T02:04:18.149Z,128.77
2019-01-27T02:06:58.761Z,129.87
2019-01-27T02:09:39.948Z,130.67
2019-01-27T02:12:21.362Z,132.13
2019-01-27T02:15:02.724Z,135.33
2019-01-27T02:17:43.481Z,131.60
2019-01-27T02:20:25.463Z,142.70
2019-01-27T02:23:06.938Z,151.50
2019-01-27T02:25:48.648Z,143.27
2019-01-27T02:28:29.537Z,138.83
2019-01-27T02:31:10.901Z,123.33
2019-01-27T02:33:52.349Z,123.67
2019-01-27T02:36:33.187Z,135.13
2019-01-27T02:39:13.493Z,133.13
2019-01-27T02:45:01.761Z,143.80
2019-01-27T02:47:43.076Z,156.70
2019-01-27T02:50:24.279Z,125.77
2019-01-27T02:53:05.066Z,145.90
2019-01-27T02:55:46.607Z,158.40
2019-01-27T02:58:27.696Z,158.10
2019-01-27T03:01:07.214Z,146.53
2019-01-27T03:03:55.658Z,145.23
2019-01-27T03:07:02.022Z,148.40
2019-01-27T03:09:44.631Z,153.33
2019-01-27T03:12:25.507Z,150.73
2019-01-27T03:15:06.175Z,140.67
2019-01-27T03:17:47.323Z,145.53
2019-01-27T03:20:27.965Z,144.90
2019-01-27T03:23:09.242Z,148.30
2019-01-27T03:25:50.515Z,142.37
2019-01-27T03:28:31.354Z,149.93
2019-01-27T03:31:12.491Z,145.77
2019-01-27T03:33:53.772Z,138.50
2019-01-27T03:36:35.149Z,142.77
2019-01-27T03:39:16.525Z,152.77
2019-01-27T03:41:58.098Z,145.37
2019-01-27T03:44:39.163Z,145.37
2019-01-27T03:47:18.984Z,146.53
2019-01-27T03:50:00.225Z,147.73
2019-01-27T03:52:41.627Z,146.90
2019-01-27T03:55:22.438Z,135.00
2019-01-27T03:58:03.950Z,136.33
2019-01-27T04:00:43.462Z,136.93
2019-01-27T04:06:37.186Z,138.10
2019-01-27T04:09:18.204Z,139.73
2019-01-27T04:11:59.596Z,149.63
2019-01-27T04:14:40.371Z,134.40
2019-01-27T04:17:21.252Z,138.30
2019-01-27T04:20:00.689Z,140.30
2019-01-27T04:22:41.823Z,129.97
2019-01-27T04:25:21.391Z,129.00
2019-01-27T04:28:02.461Z,136.27
2019-01-27T04:30:42.056Z,129.53
2019-01-27T04:33:22.693Z,128.70
2019-01-27T04:36:04.179Z,132.00
2019-01-27T04:38:45.443Z,133.50
2019-01-27T04:41:26.519Z,135.20
2019-01-27T04:44:07.982Z,128.37
2019-01-27T04:46:49.219Z,114.03
2019-01-27T04:49:30.023Z,133.00
2019-01-27T04:52:10.607Z,133.43
2019-01-27T04:54:51.275Z,118.80
2019-01-27T04:57:31.017Z,124.10
2019-01-27T05:00:12.027Z,121.40
2019-01-27T05:03:11.952Z,106.63
2019-01-27T05:05:53.332Z,116.73
2019-01-27T05:08:33.982Z,102.03
2019-01-27T05:11:15.446Z,118.97
2019-01-27T05:13:56.752Z,118.40
2019-01-27T05:16:38.142Z,112.77
2019-01-27T05:19:19.898Z,122.00
2019-01-27T05:22:01.273Z,118.30
2019-01-27T05:24:42.639Z,100.40
2019-01-27T05:27:25.396Z,115.13
2019-01-27T05:30:06.508Z,110.10
2019-01-27T05:32:47.986Z,115.97
2019-01-27T05:35:29.477Z,104.27
2019-01-27T05:38:10.829Z,123.53
2019-01-27T05:40:51.859Z,114.37
2019-01-27T05:43:32.949Z,109.60
2019-01-27T05:46:13.666Z,110.10
2019-01-27T05:48:54.487Z,108.57
2019-01-27T05:51:35.946Z,101.50
2019-01-27T05:54:17.366Z,93.43
2019-01-27T05:56:56.873Z,97.40
2019-01-27T05:59:37.528Z,101.33
2019-01-27T06:02:19.917Z,110.17
2019-01-27T06:05:01.424Z,98.17
2019-01-27T06:07:42.902Z,102.93
2019-01-27T06:10:24.118Z,110.67
2019-01-27T06:13:05.677Z,101.00
2019-01-27T06:15:45.937Z,99.40
2019-01-27T06:18:34.437Z,104.37
2019-01-27T06:21:15.665Z,102.30
2019-01-27T06:23:56.772Z,104.83
2019-01-27T06:26:37.457Z,109.03
2019-01-27T06:29:18.646Z,104.13
2019-01-27T06:31:59.996Z,97.07
2019-01-27T06:34:39.545Z,97.47
2019-01-27T06:37:24.815Z,99.70
2019-01-27T06:40:03.292Z,102.10
2019-01-27T06:42:44.428Z,97.23
2019-01-27T06:45:25.776Z,88.43
2019-01-27T06:48:06.690Z,88.97
2019-01-27T06:50:47.970Z,91.33
2019-01-27T06:53:29.174Z,80.37
2019-01-27T06:56:10.309Z,88.90
2019-01-27T06:59:10.315Z,83.83
2019-01-27T07:02:04.309Z,65.77
2019-01-27T07:04:54.529Z,82.57
2019-01-27T07:07:46.629Z,76.90
2019-01-27T07:10:49.658Z,80.10
2019-01-27T07:13:55.930Z,74.57
2019-01-27T07:16:55.056Z,71.10
2019-01-27T07:22:48.183Z,65.23
2019-01-27T07:25:55.576Z,67.03
2019-01-27T07:28:55.189Z,70.23
2019-01-27T07:32:02.664Z,67.03
2019-01-27T07:35:02.881Z,67.63
2019-01-27T07:38:03.194Z,71.87
2019-01-27T07:40:53.751Z,72.57
2019-01-27T07:43:53.338Z,67.33
2019-01-27T07:46:53.834Z,68.47
2019-01-27T07:49:53.332Z,73.97
2019-01-27T07:52:53.446Z,74.90
2019-01-27T07:55:53.836Z,71.17
2019-01-27T07:58:49.583Z,72.23
2019-01-27T08:01:45.943Z,79.40
2019-01-27T08:04:36.819Z,74.67
2019-01-27T08:07:37.185Z,73.00
2019-01-27T08:10:38.655Z,78.50
2019-01-27T08:13:45.961Z,76.50
2019-01-27T08:16:48.920Z,80.67
2019-01-27T08:19:51.587Z,71.47
2019-01-27T08:22:51.326Z,68.80
2019-01-27T08:29:06.634Z,72.97
2019-01-27T08:32:06.360Z,75.23
2019-01-27T08:34:57.220Z,73.13
2019-01-27T08:37:57.464Z,72.50
2019-01-27T08:40:57.566Z,73.47
2019-01-27T08:43:59.475Z,74.93
2019-01-27T08:46:45.757Z,69.97
2019-01-27T08:49:26.681Z,68.70
2019-01-27T08:52:08.070Z,65.47
2019-01-27T08:54:49.313Z,63.90
2019-01-27T08:57:30.819Z,62.60
2019-01-27T09:00:11.677Z,64.20
2019-01-27T09:03:11.538Z,63.60
2019-01-27T09:06:11.994Z,62.90
2019-01-27T09:09:12.638Z,61.90
2019-01-27T09:12:07.376Z,59.47
2019-01-27T09:15:07.425Z,58.77
2019-01-27T09:18:07.294Z,58.20
2019-01-27T09:24:16.201Z,63.00
2019-01-27T09:27:15.885Z,63.77
2019-01-27T09:30:15.468Z,64.13
2019-01-27T09:33:15.169Z,59.87
2019-01-27T09:36:14.740Z,56.90
2019-01-27T09:39:12.743Z,51.03
2019-01-27T09:42:12.959Z,56.97
2019-01-27T09:45:00.382Z,53.50
2019-01-27T09:48:03.701Z,54.00
2019-01-27T09:50:49.942Z,54.90
2019-01-27T09:53:55.899Z,55.30
2019-01-27T09:56:56.042Z,64.13
2019-01-27T10:02:54.634Z,53.20
2019-01-27T10:06:00.278Z,61.90
2019-01-27T10:09:00.368Z,54.87
2019-01-27T10:11:59.909Z,56.20
2019-01-27T10:14:46.675Z,56.60
2019-01-27T10:17:47.054Z,57.73
2019-01-27T10:20:46.650Z,56.67
2019-01-27T10:23:49.361Z,52.40
2019-01-27T10:26:49.080Z,50.23
2019-01-27T10:29:39.872Z,54.73
2019-01-27T10:32:39.494Z,48.83
2019-01-27T10:35:42.983Z,51.70
2019-01-27T10:38:41.412Z,53.47
2019-01-27T10:41:32.023Z,50.23
2019-01-27T10:44:32.049Z,49.40
2019-01-27T10:47:37.806Z,50.90
2019-01-27T10:50:37.684Z,51.17
2019-01-27T10:53:34.599Z,49.37
2019-01-27T10:56:29.056Z,43.47
2019-01-27T10:59:24.473Z,49.07
2019-01-27T11:02:24.173Z,44.63
2019-01-27T11:05:27.397Z,45.87
2019-01-27T11:08:27.236Z,45.57
2019-01-27T11:11:34.962Z,44.70
2019-01-27T11:14:35.291Z,49.83
2019-01-27T11:17:31.660Z,53.97
2019-01-27T11:23:28.131Z,54.37
2019-01-27T11:26:28.022Z,55.10
2019-01-27T11:29:27.592Z,58.73
2019-01-27T11:35:37.479Z,49.70
2019-01-27T11:38:40.485Z,48.57
2019-01-27T11:41:40.256Z,55.50
2019-01-27T11:44:45.807Z,52.73
2019-01-27T11:47:45.380Z,49.10
2019-01-27T11:50:30.891Z,53.70
2019-01-27T11:53:11.687Z,54.33
2019-01-27T11:55:53.103Z,53.53
2019-01-27T11:58:34.432Z,57.77
2019-01-27T12:01:15.680Z,51.90
2019-01-27T12:03:56.970Z,52.57
2019-01-27T12:06:37.872Z,57.50
2019-01-27T12:09:18.588Z,54.60
2019-01-27T12:12:00.093Z,49.23
2019-01-27T12:14:40.778Z,55.67
2019-01-27T12:17:20.792Z,62.40
2019-01-27T12:20:02.062Z,52.20
2019-01-27T12:22:43.521Z,59.63
2019-01-27T12:25:24.758Z,49.83
2019-01-27T12:28:05.425Z,53.77
2019-01-27T12:30:46.607Z,53.40
2019-01-27T12:33:27.574Z,54.83
2019-01-27T12:36:08.739Z,55.10
2019-01-27T12:38:49.998Z,58.93
2019-01-27T12:41:31.390Z,55.43
2019-01-27T12:44:12.054Z,53.90
2019-01-27T12:46:53.361Z,59.90
2019-01-27T12:49:34.317Z,57.33
2019-01-27T12:52:13.917Z,54.60
2019-01-27T12:55:02.426Z,57.43
2019-01-27T12:57:43.805Z,59.30
2019-01-27T13:00:25.125Z,57.50
2019-01-27T13:03:06.444Z,44.33
2019-01-27T13:05:47.168Z,62.03
2019-01-27T13:08:27.858Z,56.10
2019-01-27T13:11:08.588Z,57.93
2019-01-27T13:13:50.012Z,57.30
2019-01-27T13:16:30.746Z,57.97
2019-01-27T13:19:11.959Z,64.33
2019-01-27T13:21:52.663Z,62.87
2019-01-27T13:24:32.630Z,58.57
2019-01-27T13:27:21.156Z,59.17
2019-01-27T13:30:02.384Z,58.67
2019-01-27T13:32:43.783Z,59.07
2019-01-27T13:35:25.208Z,58.73
2019-01-27T13:38:06.785Z,62.10
2019-01-27T13:40:48.230Z,53.53
2019-01-27T13:43:29.787Z,59.67
2019-01-27T13:46:11.284Z,56.30
2019-01-27T13:48:52.635Z,58.10
2019-01-27T13:51:33.777Z,60.33
2019-01-27T13:54:15.076Z,57.07
2019-01-27T13:56:56.601Z,62.10
2019-01-27T13:59:38.006Z,55.57
2019-01-27T14:02:19.041Z,53.30
2019-01-27T14:05:00.191Z,56.63
2019-01-27T14:07:41.533Z,57.93
2019-01-27T14:10:22.716Z,54.07
2019-01-27T14:13:04.029Z,58.10
2019-01-27T14:15:45.030Z,56.53
2019-01-27T14:18:26.040Z,64.00
2019-01-27T14:21:07.503Z,59.50
2019-01-27T14:23:48.671Z,60.93
2019-01-27T14:26:29.714Z,56.70
2019-01-27T14:29:10.423Z,56.90
2019-01-27T14:31:51.576Z,55.33
2019-01-27T14:34:32.496Z,57.90
2019-01-27T14:37:13.206Z,54.90
2019-01-27T14:39:54.741Z,59.40
2019-01-27T14:42:36.190Z,59.50
2019-01-27T14:45:17.098Z,58.90
2019-01-27T14:47:57.814Z,58.13
2019-01-27T14:50:38.841Z,39.63
2019-01-27T14:53:20.326Z,57.50
2019-01-27T14:56:01.869Z,58.53
2019-01-27T14:58:43.228Z,60.83
2019-01-27T15:01:24.650Z,55.93
2019-01-27T15:04:05.751Z,60.03
2019-01-27T15:06:46.955Z,59.67
2019-01-27T15:09:27.685Z,61.53
2019-01-27T15:12:08.843Z,58.33
2019-01-27T15:14:49.514Z,62.13
2019-01-27T15:17:28.979Z,61.57
2019-01-27T15:20:36.376Z,62.30
2019-01-27T15:23:17.596Z,63.47
2019-01-27T15:25:58.764Z,64.67
2019-01-27T15:28:39.647Z,61.87
2019-01-27T15:31:20.281Z,65.37
2019-01-27T15:33:59.795Z,57.97
2019-01-27T15:36:48.423Z,64.03
2019-01-27T15:39:29.407Z,62.43
2019-01-27T15:42:10.160Z,65.50
2019-01-27T15:44:51.414Z,62.97
2019-01-27T15:47:32.611Z,60.37
2019-01-27T15:50:13.238Z,60.47
2019-01-27T15:52:53.799Z,55.53
2019-01-27T15:55:35.045Z,60.80
2019-01-27T15:58:15.705Z,62.30
2019-01-27T16:00:56.914Z,60.43
2019-01-27T16:03:38.262Z,57.70
2019-01-27T16:06:18.825Z,62.37
2019-01-27T16:09:00.110Z,64.40
2019-01-27T16:11:41.525Z,58.17
2019-01-27T16:14:22.637Z,64.27
2019-01-27T16:17:04.106Z,59.23
2019-01-27T16:19:45.573Z,61.50
2019-01-27T16:22:26.890Z,64.33
2019-01-27T16:25:08.345Z,67.23
2019-01-27T16:27:49.567Z,68.73
2019-01-27T16:36:43.818Z,60.27
2019-01-27T16:39:25.375Z,62.80
2019-01-27T16:42:05.378Z,64.73
2019-01-27T16:47:54.032Z,73.37
2019-01-27T16:50:35.157Z,71.13
2019-01-27T16:53:16.342Z,63.97
2019-01-27T16:55:57.872Z,65.87
2019-01-27T16:58:38.897Z,68.73
2019-01-27T17:01:20.315Z,68.50
2019-01-27T17:04:01.113Z,71.77
2019-01-27T17:06:42.340Z,65.77
2019-01-27T17:09:23.539Z,70.03
2019-01-27T17:12:04.776Z,68.67
2019-01-27T17:14:45.503Z,64.50
2019-01-27T17:17:26.275Z,70.33
2019-01-27T17:20:07.412Z,68.07
2019-01-27T17:22:48.693Z,65.33
2019-01-27T17:25:29.873Z,68.77
2019-01-27T17:28:11.328Z,68.37
2019-01-27T17:30:52.821Z,71.80
2019-01-27T17:33:32.323Z,68.13
2019-01-27T17:36:13.102Z,70.80
2019-01-27T17:38:54.530Z,68.57
2019-01-27T17:41:35.881Z,69.60
2019-01-27T17:44:16.966Z,76.33
2019-01-27T17:46:58.249Z,72.90
2019-01-27T17:49:39.707Z,72.13
2019-01-27T17:52:20.330Z,71.03
2019-01-27T17:54:59.995Z,75.30
2019-01-27T18:01:03.307Z,73.40
2019-01-27T18:07:04.260Z,75.57
2019-01-27T18:10:03.738Z,69.57
2019-01-27T18:12:55.256Z,75.07
2019-01-27T18:15:36.350Z,74.30
2019-01-27T18:18:17.058Z,74.67
2019-01-27T18:20:58.668Z,70.53
2019-01-27T18:23:40.088Z,69.53
2019-01-27T18:26:21.591Z,73.47
2019-01-27T18:29:02.543Z,71.07
2019-01-27T18:31:43.973Z,73.20
2019-01-27T18:34:24.913Z,73.90
2019-01-27T18:37:05.729Z,77.93
2019-01-27T18:39:47.037Z,72.93
2019-01-27T18:42:27.831Z,71.23
2019-01-27T18:45:08.512Z,68.57
2019-01-27T18:47:49.274Z,73.13
2019-01-27T18:50:30.798Z,74.37
2019-01-27T18:53:31.003Z,73.53
2019-01-27T18:56:31.148Z,67.93
2019-01-27T19:02:46.896Z,69.23
2019-01-27T19:05:34.225Z,73.27
2019-01-27T19:08:34.139Z,68.13
2019-01-27T19:11:37.429Z,66.63
2019-01-27T19:14:37.024Z,66.30
2019-01-27T19:17:36.630Z,69.00
2019-01-27T19:20:36.892Z,66.53
2019-01-27T19:23:28.236Z,70.97
2019-01-27T19:26:31.156Z,66.30
2019-01-27T19:29:28.235Z,64.40
2019-01-27T19:32:31.185Z,55.87
2019-01-27T19:38:49.025Z,61.57
2019-01-27T19:41:49.360Z,61.30
2019-01-27T19:47:46.001Z,56.43
2019-01-27T19:50:42.656Z,55.83
2019-01-27T19:53:42.806Z,55.53
2019-01-27T19:59:45.378Z,55.37
2019-01-27T20:02:45.725Z,55.70
2019-01-27T20:05:46.025Z,55.63
2019-01-27T20:08:33.926Z,56.97
2019-01-27T20:11:33.623Z,56.47
2019-01-27T20:14:39.384Z,54.30
2019-01-27T20:17:39.679Z,52.53
2019-01-27T20:20:34.788Z,51.80
2019-01-27T20:23:36.333Z,58.67
2019-01-27T20:26:36.804Z,52.93
2019-01-27T20:29:37.006Z,53.73
2019-01-27T20:32:37.316Z,55.17
2019-01-27T20:35:36.904Z,54.53
2019-01-27T20:38:36.654Z,52.70
2019-01-27T20:41:36.988Z,50.90
2019-01-27T20:44:36.548Z,52.80
2019-01-27T20:47:35.276Z,54.50
2019-01-27T20:50:22.022Z,53.17
2019-01-27T20:53:21.916Z,52.30
2019-01-27T20:56:21.438Z,54.50
2019-01-27T21:02:30.354Z,50.20
2019-01-27T21:05:20.366Z,55.47
2019-01-27T21:11:24.952Z,56.13
2019-01-27T21:14:27.957Z,57.67
2019-01-27T21:17:17.822Z,63.47
2019-01-27T21:20:03.322Z,59.63
2019-01-27T21:22:44.043Z,60.27
2019-01-27T21:25:24.787Z,63.00
2019-01-27T21:28:05.561Z,62.73
2019-01-27T21:30:46.525Z,44.10
2019-01-27T21:33:27.737Z,56.03
2019-01-27T21:36:09.256Z,46.70
2019-01-27T21:38:50.801Z,44.53
2019-01-27T21:41:32.309Z,44.33
2019-01-27T21:44:13.675Z,45.50
2019-01-27T21:46:54.390Z,37.13
2019-01-27T21:49:35.895Z,44.23
2019-01-27T21:52:16.497Z,40.70
2019-01-27T21:54:57.129Z,37.07
2019-01-27T21:57:38.091Z,39.70
2019-01-27T22:00:19.586Z,35.90
2019-01-27T22:02:59.149Z,38.83
2019-01-27T22:05:39.888Z,34.33
2019-01-27T22:08:20.990Z,38.10
2019-01-27T22:11:02.332Z,33.43
2019-01-27T22:13:43.665Z,37.93
2019-01-27T22:16:25.032Z,39.70
2019-01-27T22:19:06.490Z,36.30
2019-01-27T22:21:47.592Z,33.50
2019-01-27T22:24:29.179Z,37.80
2019-01-27T22:27:10.055Z,34.63
2019-01-27T22:29:51.136Z,33.43
2019-01-27T22:32:31.726Z,33.80
2019-01-27T22:35:12.459Z,38.33
2019-01-27T22:37:53.870Z,36.57
2019-01-27T22:40:35.378Z,36.87
2019-01-27T22:43:16.702Z,38.63
2019-01-27T22:45:57.490Z,35.27
2019-01-27T22:48:38.945Z,38.53
2019-01-27T22:51:20.299Z,37.83
2019-01-27T22:54:00.287Z,35.47
2019-01-27T22:56:48.871Z,39.77
2019-01-27T22:59:29.525Z,38.50
2019-01-27T23:02:10.571Z,35.83
2019-01-27T23:04:51.631Z,39.93
2019-01-27T23:07:32.916Z,44.07
2019-01-27T23:10:14.180Z,38.00
2019-01-27T23:12:55.164Z,34.77
2019-01-27T23:15:36.194Z,39.90
2019-01-27T23:18:17.586Z,34.17
2019-01-27T23:20:59.042Z,35.87
2019-01-27T23:23:40.521Z,31.93
2019-01-27T23:26:21.517Z,39.10
2019-01-27T23:29:03.068Z,38.30
2019-01-27T23:31:44.249Z,37.50
2019-01-27T23:34:25.461Z,37.53
2019-01-27T23:37:06.620Z,38.13
2019-01-27T23:39:47.452Z,38.70
2019-01-27T23:42:28.323Z,38.27
2019-01-27T23:45:09.308Z,41.27
2019-01-27T23:47:50.554Z,40.37
2019-01-27T23:50:31.228Z,43.53
2019-01-27T23:53:12.343Z,41.70
2019-01-27T23:55:53.635Z,38.73
2019-01-27T23:58:34.885Z,41.77
